Time;durP1;ratioP1;P1;durP2;ratioP2;P2;SDS_P1;SDS_P2;PMS_P1;PMS_P2;Temp;Humidity;BMP_temperature;BMP_pressure;BME280_temperature;BME280_humidity;BME280_pressure;Samples;Min_cycle;Max_cycle;Signal;HPM_P1;HPM_P2
2022/05/04 00:01:39;;;;;;;3.90;3.60;;;;;;;;;;5036276;28;20199;-34
2022/05/04 00:04:06;;;;;;;5.10;3.60;;;;;;;;;;5030705;28;20211;-39
2022/05/04 00:06:34;;;;;;;7.67;4.50;;;;;;;;;;5028350;28;20300;-39
2022/05/04 00:09:01;;;;;;;7.30;5.17;;;;;;;;;;5036087;28;20200;-34
2022/05/04 00:11:28;;;;;;;5.93;5.03;;;;;;;;;;5028402;28;20214;-39
2022/05/04 00:13:56;;;;;;;7.93;5.30;;;;;;;;;;5026471;28;20225;-36
2022/05/04 00:16:23;;;;;;;7.03;5.73;;;;;;;;;;5036214;28;20226;-39
2022/05/04 00:18:50;;;;;;;8.83;5.87;;;;;;;;;;5032310;28;20223;-32
2022/05/04 00:21:17;;;;;;;6.80;5.37;;;;;;;;;;5025631;28;20203;-35
2022/05/04 00:23:44;;;;;;;5.60;4.97;;;;;;;;;;5027167;28;20206;-33
2022/05/04 00:26:12;;;;;;;5.67;4.97;;;;;;;;;;5030620;28;20228;-33
2022/05/04 00:28:39;;;;;;;6.23;4.73;;;;;;;;;;5016571;28;20219;-32
2022/05/04 00:31:07;;;;;;;5.57;4.93;;;;;;;;;;5028878;28;20245;-37
2022/05/04 00:33:34;;;;;;;4.80;4.40;;;;;;;;;;5035413;28;20198;-40
2022/05/04 00:36:01;;;;;;;6.07;4.60;;;;;;;;;;5024734;28;20227;-32
2022/05/04 00:38:28;;;;;;;4.67;4.23;;;;;;;;;;5031223;28;20225;-37
2022/05/04 00:40:55;;;;;;;7.30;4.70;;;;;;;;;;5030061;28;20207;-36
2022/05/04 00:43:24;;;;;;;7.77;5.20;;;;;;;;;;5027614;28;20214;-40
2022/05/04 00:45:51;;;;;;;7.07;5.73;;;;;;;;;;5023952;28;20230;-39
2022/05/04 00:48:20;;;;;;;5.57;4.97;;;;;;;;;;5029979;28;20209;-37
2022/05/04 00:50:47;;;;;;;4.77;4.37;;;;;;;;;;5026320;28;20265;-37
2022/05/04 00:53:15;;;;;;;6.77;4.67;;;;;;;;;;5027139;28;20199;-38
2022/05/04 00:55:42;;;;;;;6.10;5.03;;;;;;;;;;5031823;28;20251;-36
2022/05/04 01:00:59;;;;;;;5.47;4.90;;;;;;;;;;5018086;28;20245;-37
2022/05/04 01:03:27;;;;;;;6.40;4.43;;;;;;;;;;5027200;28;20205;-38
2022/05/04 01:05:54;;;;;;;8.13;5.07;;;;;;;;;;5022866;28;20250;-35
2022/05/04 01:08:21;;;;;;;5.27;4.77;;;;;;;;;;5015255;28;20219;-37
2022/05/04 01:10:49;;;;;;;5.10;4.60;;;;;;;;;;5022399;28;20223;-35
2022/05/04 01:13:19;;;;;;;6.03;5.23;;;;;;;;;;5025561;28;20259;-38
2022/05/04 01:15:46;;;;;;;6.23;4.87;;;;;;;;;;5034524;28;20234;-38
2022/05/04 01:18:13;;;;;;;5.80;4.83;;;;;;;;;;5033977;28;20206;-40
2022/05/04 01:20:42;;;;;;;6.50;4.77;;;;;;;;;;5014518;28;20207;-39
2022/05/04 01:23:10;;;;;;;5.37;4.87;;;;;;;;;;5027834;28;20202;-35
2022/05/04 01:25:37;;;;;;;7.43;5.40;;;;;;;;;;5032069;28;20232;-37
2022/05/04 01:28:05;;;;;;;6.00;5.30;;;;;;;;;;5019844;28;20293;-36
2022/05/04 01:30:32;;;;;;;6.47;5.33;;;;;;;;;;5023837;28;20364;-38
2022/05/04 01:33:00;;;;;;;6.93;4.90;;;;;;;;;;5032107;28;20211;-38
2022/05/04 01:35:27;;;;;;;7.57;5.50;;;;;;;;;;5027678;28;20218;-38
2022/05/04 01:37:54;;;;;;;7.17;5.63;;;;;;;;;;5026191;28;20216;-34
2022/05/04 01:40:23;;;;;;;8.10;5.87;;;;;;;;;;5012246;28;20204;-36
2022/05/04 01:42:50;;;;;;;7.03;5.30;;;;;;;;;;5014884;28;20213;-37
2022/05/04 01:45:17;;;;;;;6.93;4.63;;;;;;;;;;5022791;28;20218;-34
2022/05/04 01:47:48;;;;;;;7.13;5.40;;;;;;;;;;5014404;28;20229;-39
2022/05/04 01:50:15;;;;;;;5.50;5.00;;;;;;;;;;5014140;28;20211;-36
2022/05/04 01:52:42;;;;;;;7.57;5.40;;;;;;;;;;5020967;28;20212;-34
2022/05/04 01:55:10;;;;;;;9.07;6.17;;;;;;;;;;5013923;28;20207;-36
2022/05/04 01:57:38;;;;;;;6.37;5.67;;;;;;;;;;5012721;28;20207;-32
2022/05/04 02:00:07;;;;;;;8.13;5.10;;;;;;;;;;5013949;28;20222;-35
2022/05/04 02:02:34;;;;;;;7.47;5.03;;;;;;;;;;5014325;28;20204;-39
2022/05/04 02:05:01;;;;;;;6.17;4.87;;;;;;;;;;5014997;28;20214;-34
2022/05/04 02:07:28;;;;;;;6.47;5.17;;;;;;;;;;5030579;28;20229;-38
2022/05/04 02:09:57;;;;;;;7.13;5.30;;;;;;;;;;5033655;28;20210;-38
2022/05/04 02:12:24;;;;;;;7.23;5.47;;;;;;;;;;5024926;28;20198;-39
2022/05/04 02:14:53;;;;;;;5.90;4.77;;;;;;;;;;5025009;28;20215;-34
2022/05/04 02:17:20;;;;;;;7.37;4.80;;;;;;;;;;5034094;28;20233;-42
2022/05/04 02:19:47;;;;;;;4.87;4.37;;;;;;;;;;5027519;28;20211;-35
2022/05/04 02:22:14;;;;;;;6.03;5.10;;;;;;;;;;5033000;28;20214;-38
2022/05/04 02:24:41;;;;;;;5.73;5.13;;;;;;;;;;5024800;28;20206;-35
2022/05/04 02:27:08;;;;;;;6.07;5.47;;;;;;;;;;5027745;28;20230;-35
2022/05/04 02:29:36;;;;;;;7.53;5.73;;;;;;;;;;5032520;28;20203;-39
2022/05/04 02:32:05;;;;;;;5.93;5.27;;;;;;;;;;5013564;28;20219;-36
2022/05/04 02:34:32;;;;;;;7.10;5.50;;;;;;;;;;5016933;28;20212;-38
2022/05/04 02:39:44;;;;;;;7.63;4.60;;;;;;;;;;5023339;28;20298;-37
2022/05/04 02:42:21;;;;;;;5.47;4.90;;;;;;;;;;5024194;28;20219;-35
2022/05/04 02:44:48;;;;;;;5.57;5.00;;;;;;;;;;5029750;28;20219;-36
2022/05/04 02:47:17;;;;;;;7.90;5.03;;;;;;;;;;5013509;28;20239;-37
2022/05/04 02:49:44;;;;;;;9.13;5.57;;;;;;;;;;5024916;28;20198;-38
2022/05/04 02:52:11;;;;;;;5.20;4.70;;;;;;;;;;5024029;28;20207;-36
2022/05/04 02:54:39;;;;;;;7.70;4.23;;;;;;;;;;5021390;28;20214;-40
2022/05/04 02:57:06;;;;;;;4.30;3.90;;;;;;;;;;5020852;28;20226;-36
2022/05/04 02:59:33;;;;;;;4.90;4.40;;;;;;;;;;5013642;28;20211;-40
2022/05/04 03:04:46;;;;;;;4.40;4.00;;;;;;;;;;5025312;28;20273;-35
2022/05/04 03:07:13;;;;;;;4.20;3.70;;;;;;;;;;5025865;28;20239;-37
2022/05/04 03:09:40;;;;;;;4.50;4.03;;;;;;;;;;5023261;28;20211;-34
2022/05/04 03:12:08;;;;;;;6.73;4.47;;;;;;;;;;5019083;28;20202;-36
2022/05/04 03:14:35;;;;;;;4.97;4.47;;;;;;;;;;5031801;28;20232;-38
2022/05/04 03:17:02;;;;;;;4.77;4.10;;;;;;;;;;5013022;28;20223;-40
2022/05/04 03:19:29;;;;;;;4.10;3.70;;;;;;;;;;5029018;28;20202;-35
2022/05/04 03:21:58;;;;;;;4.50;4.10;;;;;;;;;;5025116;28;20227;-33
2022/05/04 03:24:25;;;;;;;4.93;4.33;;;;;;;;;;5019778;28;20202;-31
2022/05/04 03:26:52;;;;;;;9.67;4.57;;;;;;;;;;5026365;28;20230;-37
2022/05/04 03:29:19;;;;;;;5.00;4.50;;;;;;;;;;5023854;28;20208;-36
2022/05/04 03:31:46;;;;;;;4.57;3.83;;;;;;;;;;5032840;28;20206;-38
2022/05/04 03:34:14;;;;;;;6.43;3.97;;;;;;;;;;5032548;28;20213;-39
2022/05/04 03:36:41;;;;;;;6.03;3.37;;;;;;;;;;5027282;28;20223;-35
2022/05/04 03:39:10;;;;;;;3.93;3.53;;;;;;;;;;5032486;28;20210;-34
2022/05/04 03:41:38;;;;;;;7.23;3.90;;;;;;;;;;5027903;28;20276;-36
2022/05/04 03:44:05;;;;;;;5.23;4.20;;;;;;;;;;5012278;28;20207;-36
2022/05/04 03:46:42;;;;;;;7.03;4.07;;;;;;;;;;5028866;28;20229;-36
2022/05/04 03:49:09;;;;;;;4.83;4.43;;;;;;;;;;5032548;28;20206;-40
2022/05/04 03:51:36;;;;;;;4.90;4.40;;;;;;;;;;5015139;28;20203;-37
2022/05/04 03:54:03;;;;;;;5.80;4.53;;;;;;;;;;5028034;28;20201;-34
2022/05/04 03:56:32;;;;;;;5.23;4.73;;;;;;;;;;5018600;28;20223;-38
2022/05/04 03:58:59;;;;;;;5.03;4.53;;;;;;;;;;5019662;28;20221;-37
2022/05/04 04:01:26;;;;;;;5.10;4.63;;;;;;;;;;5012533;28;20202;-42
2022/05/04 04:03:53;;;;;;;5.30;4.80;;;;;;;;;;5029960;28;20210;-39
2022/05/04 04:06:21;;;;;;;4.73;4.33;;;;;;;;;;5026378;28;20229;-38
2022/05/04 04:08:48;;;;;;;5.47;4.93;;;;;;;;;;5028793;28;20278;-32
2022/05/04 04:11:15;;;;;;;5.67;4.70;;;;;;;;;;5013577;28;20227;-37
2022/05/04 04:13:44;;;;;;;5.27;4.73;;;;;;;;;;5015399;28;20199;-36
2022/05/04 04:16:11;;;;;;;5.87;4.43;;;;;;;;;;5018881;28;20231;-40
2022/05/04 04:18:38;;;;;;;4.77;4.07;;;;;;;;;;5029957;28;20211;-33
2022/05/04 04:23:50;;;;;;;4.13;3.83;;;;;;;;;;5020276;28;20206;-35
2022/05/04 04:26:17;;;;;;;5.53;4.93;;;;;;;;;;5016812;28;20224;-36
2022/05/04 04:28:46;;;;;;;5.00;4.50;;;;;;;;;;5019673;28;20212;-38
2022/05/04 04:31:13;;;;;;;4.80;4.23;;;;;;;;;;5021907;28;20207;-38
2022/05/04 04:33:40;;;;;;;6.27;5.00;;;;;;;;;;5032642;28;20412;-36
2022/05/04 04:36:17;;;;;;;5.07;4.63;;;;;;;;;;5023967;28;20234;-36
2022/05/04 04:38:44;;;;;;;5.87;4.70;;;;;;;;;;5032056;28;20634;-33
2022/05/04 04:41:11;;;;;;;4.90;4.43;;;;;;;;;;5018603;28;20221;-37
2022/05/04 04:43:50;;;;;;;5.60;4.67;;;;;;;;;;5030709;28;20203;-37
2022/05/04 04:46:17;;;;;;;5.70;5.20;;;;;;;;;;5020515;28;20231;-33
2022/05/04 04:48:45;;;;;;;9.90;4.30;;;;;;;;;;5015499;28;20213;-31
2022/05/04 04:51:12;;;;;;;5.27;4.33;;;;;;;;;;5015709;28;20215;-37
2022/05/04 04:53:39;;;;;;;4.87;4.30;;;;;;;;;;5029011;28;20213;-41
2022/05/04 04:56:06;;;;;;;5.80;4.60;;;;;;;;;;5022815;28;20223;-33
2022/05/04 04:58:33;;;;;;;5.93;4.60;;;;;;;;;;5034174;28;20207;-34
2022/05/04 05:01:02;;;;;;;6.53;4.73;;;;;;;;;;5023202;28;20207;-35
2022/05/04 05:03:30;;;;;;;5.50;4.67;;;;;;;;;;5015535;28;20203;-39
2022/05/04 05:05:57;;;;;;;5.73;4.23;;;;;;;;;;5018178;28;20223;-33
2022/05/04 05:08:24;;;;;;;4.87;4.33;;;;;;;;;;5022009;28;20227;-40
2022/05/04 05:10:51;;;;;;;6.40;4.80;;;;;;;;;;5015244;28;20207;-39
2022/05/04 05:13:18;;;;;;;5.07;4.57;;;;;;;;;;5029995;28;20203;-35
2022/05/04 05:18:46;;;;;;;5.90;5.00;;;;;;;;;;4990054;28;20191;-35
2022/05/04 05:21:13;;;;;;;6.27;5.20;;;;;;;;;;4986182;28;20201;-40
2022/05/04 05:23:40;;;;;;;6.10;5.00;;;;;;;;;;4994293;28;20202;-38
2022/05/04 05:26:07;;;;;;;6.57;5.23;;;;;;;;;;5024331;28;20218;-35
2022/05/04 05:28:35;;;;;;;6.53;5.00;;;;;;;;;;5030288;28;20227;-35
2022/05/04 05:31:03;;;;;;;5.57;5.00;;;;;;;;;;5027352;28;20210;-39
2022/05/04 05:33:30;;;;;;;5.43;4.50;;;;;;;;;;5034689;28;20210;-37
2022/05/04 05:35:58;;;;;;;6.63;4.87;;;;;;;;;;5025261;28;20227;-33
2022/05/04 05:38:27;;;;;;;5.90;4.73;;;;;;;;;;5014297;28;20196;-38
2022/05/04 05:40:54;;;;;;;5.57;5.07;;;;;;;;;;5016592;28;20334;-32
2022/05/04 05:43:21;;;;;;;7.63;5.23;;;;;;;;;;5033307;28;20297;-39
2022/05/04 05:45:49;;;;;;;5.87;5.23;;;;;;;;;;5024796;28;20233;-38
2022/05/04 05:48:16;;;;;;;5.77;5.17;;;;;;;;;;5034526;28;20226;-34
2022/05/04 05:50:43;;;;;;;6.03;5.43;;;;;;;;;;5023760;28;20214;-37
2022/05/04 05:53:11;;;;;;;8.10;5.87;;;;;;;;;;5025563;28;20204;-34
2022/05/04 05:55:38;;;;;;;6.63;5.73;;;;;;;;;;5030368;28;20318;-36
2022/05/04 05:58:06;;;;;;;7.90;5.07;;;;;;;;;;5022204;28;20204;-38
2022/05/04 06:00:33;;;;;;;5.67;5.13;;;;;;;;;;5030906;28;20187;-33
2022/05/04 06:03:00;;;;;;;5.73;5.13;;;;;;;;;;5034008;28;20203;-33
2022/05/04 06:05:27;;;;;;;5.83;5.23;;;;;;;;;;5028759;28;20228;-42
2022/05/04 06:07:54;;;;;;;9.97;6.17;;;;;;;;;;5029806;28;20227;-38
2022/05/04 06:10:23;;;;;;;6.50;5.03;;;;;;;;;;5029469;28;20218;-35
2022/05/04 06:12:50;;;;;;;5.97;5.10;;;;;;;;;;5022776;28;20216;-35
2022/05/04 06:15:17;;;;;;;5.50;4.90;;;;;;;;;;5027293;28;20312;-36
2022/05/04 06:17:46;;;;;;;6.07;5.47;;;;;;;;;;5032138;28;20206;-37
2022/05/04 06:20:13;;;;;;;7.53;5.57;;;;;;;;;;5033728;28;20290;-33
2022/05/04 06:22:41;;;;;;;6.57;5.60;;;;;;;;;;5028975;28;20207;-36
2022/05/04 06:25:08;;;;;;;5.87;5.07;;;;;;;;;;5028917;28;20232;-35
2022/05/04 06:27:37;;;;;;;5.67;5.13;;;;;;;;;;5024247;28;20230;-32
2022/05/04 06:35:34;;;;;;;9.33;5.20;;;;;;;;;;5021653;28;20226;-36
2022/05/04 06:38:03;;;;;;;9.00;5.37;;;;;;;;;;5025425;28;20199;-40
2022/05/04 06:40:30;;;;;;;6.33;4.60;;;;;;;;;;5031553;28;20194;-37
2022/05/04 06:42:59;;;;;;;8.13;5.17;;;;;;;;;;5031727;28;20211;-35
2022/05/04 06:45:26;;;;;;;4.87;4.30;;;;;;;;;;5024860;28;20225;-40
2022/05/04 06:47:53;;;;;;;8.80;5.13;;;;;;;;;;5033849;28;20228;-36
2022/05/04 06:50:21;;;;;;;4.57;4.13;;;;;;;;;;5031118;28;20237;-29
2022/05/04 06:52:48;;;;;;;7.17;5.10;;;;;;;;;;5030810;28;20206;-35
2022/05/04 06:55:15;;;;;;;6.53;4.73;;;;;;;;;;5032745;28;20202;-34
2022/05/04 06:57:42;;;;;;;7.70;4.17;;;;;;;;;;5017158;28;20200;-35
2022/05/04 07:00:11;;;;;;;4.43;4.00;;;;;;;;;;5026111;28;20207;-36
2022/05/04 07:02:38;;;;;;;6.07;4.47;;;;;;;;;;5031492;28;20210;-38
2022/05/04 07:05:06;;;;;;;4.80;4.30;;;;;;;;;;5015266;28;20215;-36
2022/05/04 07:07:33;;;;;;;5.63;3.93;;;;;;;;;;5018975;28;20233;-35
2022/05/04 07:10:01;;;;;;;5.10;3.97;;;;;;;;;;5030325;28;20206;-35
2022/05/04 07:12:28;;;;;;;4.73;3.80;;;;;;;;;;5021552;28;20234;-39
2022/05/04 07:14:56;;;;;;;4.17;3.83;;;;;;;;;;5024045;28;20302;-36
2022/05/04 07:17:24;;;;;;;4.70;4.00;;;;;;;;;;5033275;28;20214;-36
2022/05/04 07:19:51;;;;;;;4.53;3.90;;;;;;;;;;5026057;28;20207;-37
2022/05/04 07:22:19;;;;;;;4.70;4.20;;;;;;;;;;5032316;28;20289;-37
2022/05/04 07:24:46;;;;;;;7.37;4.27;;;;;;;;;;5014184;28;20213;-33
2022/05/04 07:27:13;;;;;;;4.17;3.87;;;;;;;;;;5022588;28;20222;-34
2022/05/04 07:29:42;;;;;;;4.53;4.13;;;;;;;;;;5023461;28;20213;-38
2022/05/04 07:32:10;;;;;;;5.50;4.20;;;;;;;;;;5032488;28;20302;-36
2022/05/04 07:34:38;;;;;;;4.03;3.73;;;;;;;;;;5032643;28;20213;-33
2022/05/04 07:37:05;;;;;;;6.13;3.63;;;;;;;;;;5022339;28;20234;-33
2022/05/04 07:42:28;;;;;;;6.57;3.70;;;;;;;;;;5012551;28;20302;-38
2022/05/04 07:44:58;;;;;;;3.73;3.40;;;;;;;;;;5020911;28;20205;-34
2022/05/04 07:47:26;;;;;;;4.60;3.97;;;;;;;;;;5025601;28;20200;-36
2022/05/04 07:49:55;;;;;;;3.23;2.93;;;;;;;;;;5022600;28;20203;-31
2022/05/04 07:52:22;;;;;;;3.20;2.93;;;;;;;;;;5019123;28;20206;-33
2022/05/04 07:54:49;;;;;;;4.80;3.33;;;;;;;;;;5013656;28;20286;-34
2022/05/04 07:57:16;;;;;;;5.07;2.87;;;;;;;;;;5018428;28;20342;-31
2022/05/04 08:04:16;;;;;;;3.23;2.80;;;;;;;;;;5013836;28;20211;-40
2022/05/04 08:05:19;;;;;;;2.73;2.53;;;;;;;;;;5004341;28;20250;-34
2022/05/04 08:07:48;;;;;;;2.70;2.50;;;;;;;;;;5023870;28;20316;-33
2022/05/04 08:10:15;;;;;;;3.00;2.70;;;;;;;;;;5035378;28;20211;-35
2022/05/04 08:12:42;;;;;;;3.87;2.60;;;;;;;;;;5027908;28;20206;-34
2022/05/04 08:15:10;;;;;;;3.90;2.63;;;;;;;;;;5022500;28;20207;-38
2022/05/04 08:17:38;;;;;;;4.87;2.90;;;;;;;;;;5016111;28;20281;-34
2022/05/04 08:20:05;;;;;;;4.13;2.73;;;;;;;;;;5024770;28;20206;-36
2022/05/04 08:22:34;;;;;;;3.20;2.90;;;;;;;;;;5026056;28;20209;-37
2022/05/04 08:25:01;;;;;;;3.47;3.17;;;;;;;;;;5034437;28;20206;-37
2022/05/04 08:27:28;;;;;;;5.20;3.30;;;;;;;;;;5021422;28;20215;-35
2022/05/04 08:29:55;;;;;;;4.57;3.07;;;;;;;;;;5020104;28;20207;-35
2022/05/04 08:32:22;;;;;;;3.60;3.30;;;;;;;;;;5015662;28;20213;-37
2022/05/04 08:34:49;;;;;;;4.20;3.43;;;;;;;;;;5014685;28;20212;-37
2022/05/04 08:37:17;;;;;;;3.67;3.33;;;;;;;;;;5023868;28;20227;-36
2022/05/04 08:39:45;;;;;;;4.60;3.80;;;;;;;;;;5034113;28;20195;-32
2022/05/04 08:42:14;;;;;;;3.87;3.43;;;;;;;;;;5020779;28;20209;-35
2022/05/04 08:44:42;;;;;;;4.30;3.57;;;;;;;;;;5031457;28;20202;-35
2022/05/04 08:47:13;;;;;;;5.30;4.57;;;;;;;;;;5035478;28;20226;-35
2022/05/04 08:49:40;;;;;;;9.40;4.30;;;;;;;;;;5026754;28;20207;-36
2022/05/04 08:52:07;;;;;;;5.00;4.00;;;;;;;;;;5030550;28;20209;-34
2022/05/04 08:54:35;;;;;;;4.93;3.97;;;;;;;;;;5032416;28;20202;-34
2022/05/04 08:57:05;;;;;;;6.17;3.40;;;;;;;;;;5016800;28;20226;-34
2022/05/04 08:59:32;;;;;;;6.97;3.47;;;;;;;;;;5021066;28;20298;-41
2022/05/04 09:01:59;;;;;;;4.93;3.30;;;;;;;;;;5020424;28;20215;-33
2022/05/04 09:04:26;;;;;;;3.97;3.33;;;;;;;;;;5017766;28;20214;-32
2022/05/04 09:06:53;;;;;;;3.70;3.30;;;;;;;;;;5017943;28;20222;-38
2022/05/04 09:09:20;;;;;;;3.93;3.23;;;;;;;;;;5025031;28;20223;-38
2022/05/04 09:12:06;;;;;;;8.53;3.47;;;;;;;;;;5021017;28;20211;-37
2022/05/04 09:14:35;;;;;;;4.10;3.70;;;;;;;;;;5032011;28;20226;-35
2022/05/04 09:17:04;;;;;;;4.57;3.77;;;;;;;;;;5032358;28;20230;-34
2022/05/04 09:19:32;;;;;;;4.67;3.83;;;;;;;;;;5027786;28;20206;-32
2022/05/04 09:21:59;;;;;;;4.40;3.57;;;;;;;;;;5022586;28;20403;-35
2022/05/04 09:24:27;;;;;;;3.90;3.57;;;;;;;;;;5031811;28;20207;-38
2022/05/04 09:26:55;;;;;;;4.07;3.60;;;;;;;;;;5030973;28;20223;-35
2022/05/04 09:29:33;;;;;;;4.33;3.40;;;;;;;;;;5030525;28;20227;-36
2022/05/04 09:32:13;;;;;;;3.47;3.17;;;;;;;;;;5035076;28;20198;-33
2022/05/04 09:34:41;;;;;;;2.60;2.37;;;;;;;;;;5020744;28;20199;-36
2022/05/04 09:45:36;;;;;;;3.80;2.70;;;;;;;;;;5026488;28;20240;-37
2022/05/04 09:48:05;;;;;;;4.37;2.50;;;;;;;;;;5011925;28;20204;-38
2022/05/04 09:50:39;;;;;;;3.00;2.80;;;;;;;;;;5017169;28;20207;-34
2022/05/04 09:53:07;;;;;;;4.07;3.00;;;;;;;;;;5021553;28;20211;-34
2022/05/04 09:55:34;;;;;;;3.80;2.70;;;;;;;;;;5015633;28;20230;-34
2022/05/04 09:58:03;;;;;;;2.87;2.67;;;;;;;;;;5020405;28;20210;-33
2022/05/04 10:00:30;;;;;;;3.90;2.43;;;;;;;;;;5021426;28;20684;-32
2022/05/04 10:02:57;;;;;;;2.77;2.57;;;;;;;;;;5020495;28;20198;-35
2022/05/04 10:05:27;;;;;;;2.40;2.20;;;;;;;;;;5031166;28;20603;-31
2022/05/04 10:07:56;;;;;;;2.60;2.13;;;;;;;;;;5033654;28;20206;-34
2022/05/04 10:10:25;;;;;;;2.37;2.13;;;;;;;;;;5019237;28;20237;-32
2022/05/04 10:12:52;;;;;;;2.07;1.97;;;;;;;;;;5024946;28;20217;-37
2022/05/04 10:15:20;;;;;;;2.53;2.30;;;;;;;;;;5026918;28;20226;-34
2022/05/04 10:17:49;;;;;;;3.90;2.20;;;;;;;;;;5014052;28;20207;-37
2022/05/04 10:20:18;;;;;;;2.63;2.07;;;;;;;;;;5010947;28;20199;-35
2022/05/04 10:22:55;;;;;;;2.93;2.00;;;;;;;;;;5016729;28;20210;-31
2022/05/04 10:25:24;;;;;;;2.60;2.40;;;;;;;;;;5018063;28;20574;-35
2022/05/04 10:27:52;;;;;;;3.90;2.13;;;;;;;;;;5021458;28;20210;-34
2022/05/04 10:30:34;;;;;;;2.07;1.90;;;;;;;;;;5021899;28;20226;-35
2022/05/04 10:33:02;;;;;;;2.50;2.30;;;;;;;;;;5019260;28;20197;-35
2022/05/04 10:35:33;;;;;;;4.70;2.43;;;;;;;;;;5027973;28;20222;-35
2022/05/04 10:38:11;;;;;;;3.47;2.20;;;;;;;;;;5019484;28;20206;-40
2022/05/04 10:40:39;;;;;;;2.10;2.00;;;;;;;;;;5015604;28;20195;-37
2022/05/04 10:43:07;;;;;;;2.00;1.80;;;;;;;;;;5023960;28;20214;-34
2022/05/04 10:45:34;;;;;;;3.40;1.93;;;;;;;;;;5024381;28;20216;-39
2022/05/04 10:48:15;;;;;;;3.40;1.90;;;;;;;;;;5023380;28;20238;-33
2022/05/04 10:50:48;;;;;;;2.70;2.23;;;;;;;;;;5025697;28;20206;-35
2022/05/04 10:53:30;;;;;;;2.10;2.00;;;;;;;;;;5012741;28;20203;-33
2022/05/04 10:56:03;;;;;;;2.70;2.50;;;;;;;;;;5014821;28;20237;-36
2022/05/04 10:58:34;;;;;;;6.03;2.47;;;;;;;;;;5022914;28;20215;-35
2022/05/04 11:01:05;;;;;;;2.30;1.90;;;;;;;;;;5028484;28;20213;-36
2022/05/04 11:03:35;;;;;;;2.30;2.20;;;;;;;;;;5020357;28;20209;-36
2022/05/04 11:06:09;;;;;;;2.60;2.40;;;;;;;;;;5018760;28;20234;-37
2022/05/04 11:08:36;;;;;;;5.47;3.97;;;;;;;;;;5025617;28;20206;-39
2022/05/04 11:11:05;;;;;;;4.57;3.80;;;;;;;;;;5026923;28;20209;-37
2022/05/04 11:13:33;;;;;;;7.23;3.57;;;;;;;;;;5028279;28;20222;-37
2022/05/04 11:16:01;;;;;;;4.57;3.70;;;;;;;;;;5024776;28;20223;-33
2022/05/04 11:18:30;;;;;;;5.60;3.57;;;;;;;;;;5020741;28;20242;-35
2022/05/04 11:20:57;;;;;;;4.17;3.87;;;;;;;;;;5022591;28;20203;-33
2022/05/04 11:23:24;;;;;;;4.23;3.30;;;;;;;;;;5012382;28;20214;-39
2022/05/04 11:25:52;;;;;;;3.87;3.43;;;;;;;;;;5028235;28;20226;-40
2022/05/04 11:28:21;;;;;;;2.70;2.50;;;;;;;;;;5026722;28;20300;-35
2022/05/04 11:30:48;;;;;;;2.10;2.00;;;;;;;;;;5023980;28;20203;-34
2022/05/04 11:33:15;;;;;;;2.17;1.97;;;;;;;;;;5032499;28;20211;-34
2022/05/04 11:35:43;;;;;;;2.57;2.00;;;;;;;;;;5021750;28;20226;-38
2022/05/04 11:38:17;;;;;;;1.93;1.83;;;;;;;;;;5020564;28;20275;-35
2022/05/04 11:40:45;;;;;;;2.70;1.90;;;;;;;;;;5020338;28;20201;-38
2022/05/04 11:43:24;;;;;;;2.20;2.10;;;;;;;;;;5027907;28;20202;-33
2022/05/04 11:45:52;;;;;;;2.43;2.00;;;;;;;;;;5025011;28;20320;-33
2022/05/04 11:48:27;;;;;;;7.20;1.83;;;;;;;;;;5016846;28;20219;-35
2022/05/04 11:50:54;;;;;;;2.17;2.03;;;;;;;;;;5018704;28;20201;-37
2022/05/04 11:53:21;;;;;;;2.97;2.23;;;;;;;;;;5033729;28;20213;-36
2022/05/04 11:55:48;;;;;;;2.30;2.10;;;;;;;;;;5031574;28;20243;-36
2022/05/04 11:58:15;;;;;;;2.50;2.30;;;;;;;;;;5030835;28;20217;-37
2022/05/04 12:00:44;;;;;;;3.13;2.23;;;;;;;;;;5035755;28;20199;-34
2022/05/04 12:03:11;;;;;;;6.00;3.00;;;;;;;;;;5036129;28;20217;-39
2022/05/04 12:05:39;;;;;;;2.43;2.10;;;;;;;;;;5030399;28;20230;-36
2022/05/04 12:08:07;;;;;;;1.93;1.83;;;;;;;;;;5021708;28;20211;-36
2022/05/04 12:10:35;;;;;;;2.23;1.80;;;;;;;;;;5021551;28;20224;-36
2022/05/04 12:13:02;;;;;;;2.10;1.90;;;;;;;;;;5019686;28;20203;-39
2022/05/04 12:15:30;;;;;;;2.57;2.13;;;;;;;;;;5027340;28;20223;-37
2022/05/04 12:18:02;;;;;;;3.20;2.17;;;;;;;;;;5014772;28;20211;-38
2022/05/04 12:20:30;;;;;;;4.20;2.67;;;;;;;;;;5028539;28;20215;-41
2022/05/04 12:22:58;;;;;;;2.80;2.07;;;;;;;;;;5027472;28;20211;-39
2022/05/04 12:25:25;;;;;;;2.50;2.30;;;;;;;;;;5033860;28;20266;-39
2022/05/04 12:27:54;;;;;;;3.73;2.57;;;;;;;;;;5017057;28;20211;-34
2022/05/04 12:33:09;;;;;;;3.13;2.60;;;;;;;;;;5015691;28;20211;-37
2022/05/04 12:35:37;;;;;;;6.97;3.63;;;;;;;;;;5016096;28;20234;-33
2022/05/04 12:38:04;;;;;;;3.33;2.83;;;;;;;;;;5025968;28;20211;-35
2022/05/04 12:40:32;;;;;;;5.27;3.03;;;;;;;;;;5032925;28;20199;-36
2022/05/04 12:42:59;;;;;;;5.60;3.80;;;;;;;;;;5027463;28;20216;-36
2022/05/04 12:45:26;;;;;;;3.70;2.60;;;;;;;;;;5031866;28;20218;-35
2022/05/04 12:47:54;;;;;;;5.10;3.70;;;;;;;;;;5035259;28;20213;-38
2022/05/04 12:50:23;;;;;;;4.50;2.40;;;;;;;;;;5025226;28;20224;-34
2022/05/04 12:52:50;;;;;;;4.20;3.67;;;;;;;;;;5025525;28;20298;-38
2022/05/04 12:55:17;;;;;;;3.90;3.07;;;;;;;;;;5034136;28;20222;-32
2022/05/04 12:57:45;;;;;;;6.87;3.90;;;;;;;;;;5023092;28;20202;-32
2022/05/04 13:00:18;;;;;;;4.30;3.90;;;;;;;;;;5028228;28;20207;-32
2022/05/04 13:02:45;;;;;;;4.53;3.40;;;;;;;;;;5034720;28;20199;-37
2022/05/04 13:05:12;;;;;;;5.67;3.90;;;;;;;;;;5034974;28;20214;-35
2022/05/04 13:07:43;;;;;;;9.23;4.37;;;;;;;;;;5024745;28;20206;-37
2022/05/04 13:10:11;;;;;;;3.57;2.97;;;;;;;;;;5020764;28;20211;-36
2022/05/04 13:12:38;;;;;;;3.83;3.40;;;;;;;;;;5029442;28;20217;-34
2022/05/04 13:15:06;;;;;;;5.80;3.43;;;;;;;;;;5029684;28;20196;-36
2022/05/04 13:17:33;;;;;;;4.03;3.63;;;;;;;;;;5015083;28;20207;-34
2022/05/04 13:20:00;;;;;;;6.17;3.70;;;;;;;;;;5018396;28;20209;-38
2022/05/04 13:22:27;;;;;;;2.93;2.73;;;;;;;;;;5022530;28;20214;-37
2022/05/04 13:24:59;;;;;;;3.17;2.97;;;;;;;;;;5025483;28;20203;-37
2022/05/04 13:27:27;;;;;;;3.90;3.50;;;;;;;;;;5024724;28;20206;-34
2022/05/04 13:29:54;;;;;;;6.43;2.77;;;;;;;;;;5030969;28;20219;-38
2022/05/04 13:32:21;;;;;;;5.60;3.63;;;;;;;;;;5014625;28;20210;-35
2022/05/04 13:34:48;;;;;;;4.87;3.97;;;;;;;;;;5014460;28;20322;-39
2022/05/04 13:37:15;;;;;;;4.33;3.20;;;;;;;;;;5026038;28;20233;-33
2022/05/04 13:39:43;;;;;;;5.20;3.33;;;;;;;;;;5022088;28;20204;-38
2022/05/04 13:42:12;;;;;;;6.40;4.07;;;;;;;;;;5012038;28;20203;-40
2022/05/04 13:44:40;;;;;;;5.50;3.37;;;;;;;;;;5022573;28;20209;-32
2022/05/04 13:47:07;;;;;;;4.17;3.53;;;;;;;;;;5023034;28;20226;-35
2022/05/04 13:49:34;;;;;;;5.23;4.03;;;;;;;;;;5019845;28;20219;-39
2022/05/04 13:54:46;;;;;;;4.27;3.60;;;;;;;;;;5033959;28;20229;-40
2022/05/04 13:57:15;;;;;;;4.53;3.30;;;;;;;;;;5028098;28;20234;-36
2022/05/04 13:59:42;;;;;;;5.00;3.03;;;;;;;;;;5016352;28;20298;-35
2022/05/04 14:02:09;;;;;;;3.00;2.70;;;;;;;;;;5020422;28;20203;-34
2022/05/04 14:04:37;;;;;;;3.00;2.80;;;;;;;;;;5013562;28;20211;-35
2022/05/04 14:07:04;;;;;;;3.10;2.77;;;;;;;;;;5015518;28;20223;-39
2022/05/04 14:09:32;;;;;;;4.60;2.90;;;;;;;;;;5017096;28;20229;-41
2022/05/04 14:11:59;;;;;;;4.13;2.73;;;;;;;;;;5025558;28;20200;-36
2022/05/04 14:17:13;;;;;;;3.20;2.57;;;;;;;;;;5018374;28;20269;-33
2022/05/04 14:19:40;;;;;;;3.63;2.70;;;;;;;;;;5013107;28;20212;-40
2022/05/04 14:22:07;;;;;;;3.27;2.97;;;;;;;;;;5025401;28;20203;-37
2022/05/04 14:24:34;;;;;;;3.00;2.63;;;;;;;;;;5023835;28;20203;-41
2022/05/04 14:27:02;;;;;;;3.07;2.63;;;;;;;;;;5012318;28;20235;-37
2022/05/04 14:29:30;;;;;;;2.97;2.30;;;;;;;;;;5017178;28;20218;-37
2022/05/04 14:31:57;;;;;;;2.47;2.23;;;;;;;;;;5016049;28;20207;-37
2022/05/04 14:34:24;;;;;;;2.73;1.87;;;;;;;;;;5033208;28;20211;-41
2022/05/04 14:36:51;;;;;;;4.57;2.30;;;;;;;;;;5028831;28;20231;-39
2022/05/04 14:39:19;;;;;;;1.93;1.77;;;;;;;;;;5021121;28;20203;-43
2022/05/04 14:41:46;;;;;;;2.30;2.07;;;;;;;;;;5026620;28;20207;-35
2022/05/04 14:44:13;;;;;;;3.37;2.13;;;;;;;;;;5024120;28;20199;-39
2022/05/04 14:46:42;;;;;;;2.77;2.50;;;;;;;;;;5024617;28;20241;-39
2022/05/04 14:49:09;;;;;;;3.80;2.30;;;;;;;;;;5027552;28;20215;-36
2022/05/04 14:51:57;;;;;;;5.37;2.67;;;;;;;;;;5015170;28;20223;-39
2022/05/04 14:54:24;;;;;;;2.80;2.60;;;;;;;;;;5031803;28;20207;-40
2022/05/04 14:56:52;;;;;;;2.93;2.73;;;;;;;;;;5025708;28;20251;-41
2022/05/04 14:59:19;;;;;;;3.17;2.87;;;;;;;;;;5022092;28;20277;-34
2022/05/04 15:01:48;;;;;;;2.33;1.90;;;;;;;;;;5031581;28;20195;-41
2022/05/04 15:07:00;;;;;;;2.23;1.87;;;;;;;;;;5019472;28;20245;-40
2022/05/04 15:09:27;;;;;;;3.63;1.60;;;;;;;;;;5022328;28;20261;-35
2022/05/04 15:11:57;;;;;;;3.07;1.50;;;;;;;;;;5024780;28;20203;-35
2022/05/04 15:14:24;;;;;;;2.20;1.77;;;;;;;;;;5019933;28;20203;-41
2022/05/04 15:16:52;;;;;;;1.80;1.63;;;;;;;;;;5024130;28;20229;-32
2022/05/04 15:19:21;;;;;;;1.77;1.67;;;;;;;;;;5026553;28;20208;-38
2022/05/04 15:21:49;;;;;;;1.20;1.10;;;;;;;;;;5023600;28;20199;-38
2022/05/04 15:24:16;;;;;;;6.10;1.63;;;;;;;;;;5032514;28;20208;-37
2022/05/04 15:26:43;;;;;;;1.90;1.67;;;;;;;;;;5027437;28;20220;-34
2022/05/04 15:29:10;;;;;;;2.17;1.27;;;;;;;;;;5025695;28;20210;-37
2022/05/04 15:31:38;;;;;;;1.50;1.40;;;;;;;;;;5024323;28;20214;-37
2022/05/04 15:34:06;;;;;;;1.63;1.40;;;;;;;;;;5027170;28;20201;-36